This is the latest recevied weather packets stored in our database for station/object K9ABJ. If no packets are shown the sender has not sent any weather packets the latest 1 day(s).
| Time | Temp. | Humidity | Pressure | Rain* | Wind** | Luminosity | Snow |
|---|---|---|---|---|---|---|---|
| 1778081044 | 15° C | 40% | 1012.9 hPa | 0 mm | - | 284 W/m² | - |
| 1778080439 | 15° C | 42% | 1012.8 hPa | 0 mm | - | 493 W/m² | - |
| 1778079833 | 15° C | 46% | 1012.8 hPa | 0 mm | - | 601 W/m² | - |
| 1778079530 | 14.44° C | 44% | 1012.8 hPa | 0 mm | - | 509 W/m² | - |
| 1778079226 | 13.33° C | 42% | 1012.7 hPa | 0 mm | - | 329 W/m² | - |
| 1778078924 | 14.44° C | 46% | 1012.6 hPa | 0 mm | - | 330 W/m² | - |
| 1778078620 | 13.89° C | 44% | 1012.8 hPa | 0 mm | - | 526 W/m² | - |
| 1778076505 | 12.78° C | 49% | 1012.3 hPa | 0 mm | - | 281 W/m² | - |
| 1778075595 | 13.33° C | 51% | 1012.1 hPa | 0 mm | - | 421 W/m² | - |
| 1778074685 | 12.22° C | 53% | 1012.4 hPa | 0 mm | - | 343 W/m² | - |
| 1778074382 | 12.22° C | 57% | 1012.2 hPa | 0 mm | - | 357 W/m² | - |
| 1778073776 | 11.11° C | 57% | 1012.4 hPa | 0 mm | - | 292 W/m² | - |
| 1778073474 | 10.56° C | 62% | 1012.2 hPa | 0 mm | - | 243 W/m² | - |
| 1778071959 | 10.56° C | 65% | 1011.7 hPa | 0 mm | - | 236 W/m² | - |
| 1778071052 | 8.89° C | 71% | 1011.7 hPa | 0 mm | - | 103 W/m² | - |
| 1778070144 | 8.89° C | 75% | 1011.8 hPa | 0 mm | - | 143 W/m² | - |
| 1778069236 | 10° C | 83% | 1011.5 hPa | 0 mm | - | 142 W/m² | - |
| 1778067423 | 7.78° C | 92% | 1011 hPa | 0 mm | - | 65 W/m² | - |
| 1778066211 | 6.11° C | 92% | 1010.7 hPa | 0 mm | - | 18 W/m² | - |
| 1778064696 | 6.67° C | 93% | 1010 hPa | 0 mm | - | 4 W/m² | - |
| 1778064092 | 7.22° C | 93% | 1010 hPa | 0 mm | - | 1 W/m² | - |
| 1778063789 | 7.22° C | 93% | 1010.1 hPa | 0 mm | - | 0 W/m² | - |
| 1778063486 | 7.22° C | 93% | 1009.9 hPa | 0 mm | - | 0 W/m² | - |
| 1778063184 | 7.22° C | 93% | 1009.7 hPa | 0 mm | - | 0 W/m² | - |
| 1778062881 | 7.22° C | 93% | 1009.7 hPa | 0 mm | - | 0 W/m² | - |
* Rain latest hour (hover to see other rain measurements)
** Current wind speed in m/s (hover to see current wind gust speed)